sensor_id;sensor_type;location;lat;lon;timestamp;P1;durP1;ratioP1;P2;durP2;ratioP2
15938;SDS011;8068;51.322;9.450;2022-11-11T00:01:22;10.50;;;4.80;;
15938;SDS011;8068;51.322;9.450;2022-11-11T00:03:55;6.87;;;4.57;;
15938;SDS011;8068;51.322;9.450;2022-11-11T00:06:21;11.53;;;5.17;;
15938;SDS011;8068;51.322;9.450;2022-11-11T00:08:51;4.53;;;3.83;;
15938;SDS011;8068;51.322;9.450;2022-11-11T00:11:23;9.83;;;5.00;;
15938;SDS011;8068;51.322;9.450;2022-11-11T00:13:52;17.60;;;5.10;;
15938;SDS011;8068;51.322;9.450;2022-11-11T00:16:22;8.70;;;4.60;;
15938;SDS011;8068;51.322;9.450;2022-11-11T00:18:51;12.00;;;5.13;;
15938;SDS011;8068;51.322;9.450;2022-11-11T00:21:35;9.27;;;5.57;;
15938;SDS011;8068;51.322;9.450;2022-11-11T00:24:02;15.37;;;5.37;;
15938;SDS011;8068;51.322;9.450;2022-11-11T00:26:51;10.83;;;4.87;;
15938;SDS011;8068;51.322;9.450;2022-11-11T00:29:22;10.40;;;5.47;;
15938;SDS011;8068;51.322;9.450;2022-11-11T00:31:48;13.40;;;6.20;;
15938;SDS011;8068;51.322;9.450;2022-11-11T00:34:37;6.77;;;5.03;;
15938;SDS011;8068;51.322;9.450;2022-11-11T00:37:07;8.53;;;5.60;;
15938;SDS011;8068;51.322;9.450;2022-11-11T00:39:33;10.90;;;5.87;;
15938;SDS011;8068;51.322;9.450;2022-11-11T00:42:07;12.60;;;5.50;;
15938;SDS011;8068;51.322;9.450;2022-11-11T00:44:37;13.47;;;6.63;;
15938;SDS011;8068;51.322;9.450;2022-11-11T00:47:07;10.50;;;5.70;;
15938;SDS011;8068;51.322;9.450;2022-11-11T00:49:56;8.33;;;6.13;;
15938;SDS011;8068;51.322;9.450;2022-11-11T00:52:44;16.90;;;6.90;;
15938;SDS011;8068;51.322;9.450;2022-11-11T00:55:19;12.10;;;6.90;;
15938;SDS011;8068;51.322;9.450;2022-11-11T00:57:50;11.73;;;6.47;;
15938;SDS011;8068;51.322;9.450;2022-11-11T01:00:20;15.23;;;6.70;;
15938;SDS011;8068;51.322;9.450;2022-11-11T01:02:49;13.90;;;6.93;;
15938;SDS011;8068;51.322;9.450;2022-11-11T01:05:20;15.33;;;7.13;;
15938;SDS011;8068;51.322;9.450;2022-11-11T01:07:49;11.10;;;6.30;;
15938;SDS011;8068;51.322;9.450;2022-11-11T01:10:21;11.43;;;6.60;;
15938;SDS011;8068;51.322;9.450;2022-11-11T01:13:12;11.90;;;6.53;;
15938;SDS011;8068;51.322;9.450;2022-11-11T01:15:46;12.40;;;6.53;;
15938;SDS011;8068;51.322;9.450;2022-11-11T01:18:29;9.43;;;6.03;;
15938;SDS011;8068;51.322;9.450;2022-11-11T01:23:28;11.57;;;6.50;;
15938;SDS011;8068;51.322;9.450;2022-11-11T01:26:08;10.50;;;6.13;;
15938;SDS011;8068;51.322;9.450;2022-11-11T01:28:38;10.97;;;7.40;;
15938;SDS011;8068;51.322;9.450;2022-11-11T01:31:05;16.17;;;7.10;;
15938;SDS011;8068;51.322;9.450;2022-11-11T01:33:33;12.77;;;7.30;;
15938;SDS011;8068;51.322;9.450;2022-11-11T01:36:02;10.63;;;7.20;;
15938;SDS011;8068;51.322;9.450;2022-11-11T01:38:30;14.70;;;7.27;;
15938;SDS011;8068;51.322;9.450;2022-11-11T01:41:01;16.80;;;7.80;;
15938;SDS011;8068;51.322;9.450;2022-11-11T01:43:53;15.20;;;7.97;;
15938;SDS011;8068;51.322;9.450;2022-11-11T01:46:26;18.70;;;8.43;;
15938;SDS011;8068;51.322;9.450;2022-11-11T01:54:58;15.10;;;9.47;;
15938;SDS011;8068;51.322;9.450;2022-11-11T01:57:33;26.47;;;10.03;;
15938;SDS011;8068;51.322;9.450;2022-11-11T02:00:11;16.20;;;9.60;;
15938;SDS011;8068;51.322;9.450;2022-11-11T02:02:45;15.03;;;9.23;;
15938;SDS011;8068;51.322;9.450;2022-11-11T02:08:28;20.97;;;10.33;;
15938;SDS011;8068;51.322;9.450;2022-11-11T02:11:03;22.30;;;11.87;;
15938;SDS011;8068;51.322;9.450;2022-11-11T02:13:30;27.50;;;12.80;;
15938;SDS011;8068;51.322;9.450;2022-11-11T02:16:17;24.37;;;12.77;;
15938;SDS011;8068;51.322;9.450;2022-11-11T02:18:51;22.80;;;13.00;;
15938;SDS011;8068;51.322;9.450;2022-11-11T02:21:25;22.93;;;13.67;;
15938;SDS011;8068;51.322;9.450;2022-11-11T02:24:02;29.43;;;13.60;;
15938;SDS011;8068;51.322;9.450;2022-11-11T02:26:34;28.13;;;13.83;;
15938;SDS011;8068;51.322;9.450;2022-11-11T02:29:15;19.77;;;12.20;;
15938;SDS011;8068;51.322;9.450;2022-11-11T02:31:45;23.23;;;12.57;;
15938;SDS011;8068;51.322;9.450;2022-11-11T02:34:17;20.53;;;12.00;;
15938;SDS011;8068;51.322;9.450;2022-11-11T02:36:47;16.90;;;10.80;;
15938;SDS011;8068;51.322;9.450;2022-11-11T02:39:17;22.63;;;12.97;;
15938;SDS011;8068;51.322;9.450;2022-11-11T02:41:56;29.90;;;13.20;;
15938;SDS011;8068;51.322;9.450;2022-11-11T02:44:27;27.70;;;12.47;;
15938;SDS011;8068;51.322;9.450;2022-11-11T02:46:57;26.53;;;12.47;;
15938;SDS011;8068;51.322;9.450;2022-11-11T02:49:27;21.50;;;12.80;;
15938;SDS011;8068;51.322;9.450;2022-11-11T02:51:57;19.63;;;12.43;;
15938;SDS011;8068;51.322;9.450;2022-11-11T02:54:28;24.27;;;12.77;;
15938;SDS011;8068;51.322;9.450;2022-11-11T02:56:58;24.47;;;12.93;;
15938;SDS011;8068;51.322;9.450;2022-11-11T02:59:39;26.07;;;14.20;;
15938;SDS011;8068;51.322;9.450;2022-11-11T03:02:09;26.30;;;13.03;;
15938;SDS011;8068;51.322;9.450;2022-11-11T03:04:39;24.10;;;13.20;;
15938;SDS011;8068;51.322;9.450;2022-11-11T03:07:14;22.53;;;12.30;;
15938;SDS011;8068;51.322;9.450;2022-11-11T03:09:44;21.43;;;12.50;;
15938;SDS011;8068;51.322;9.450;2022-11-11T03:12:14;17.57;;;12.37;;
15938;SDS011;8068;51.322;9.450;2022-11-11T03:14:44;25.37;;;11.83;;
15938;SDS011;8068;51.322;9.450;2022-11-11T03:17:14;16.70;;;12.20;;
15938;SDS011;8068;51.322;9.450;2022-11-11T03:20:02;19.57;;;10.57;;
15938;SDS011;8068;51.322;9.450;2022-11-11T03:22:59;22.87;;;11.90;;
15938;SDS011;8068;51.322;9.450;2022-11-11T03:25:33;20.83;;;11.30;;
15938;SDS011;8068;51.322;9.450;2022-11-11T03:28:10;17.07;;;11.10;;
15938;SDS011;8068;51.322;9.450;2022-11-11T03:30:39;21.60;;;13.00;;
15938;SDS011;8068;51.322;9.450;2022-11-11T03:33:07;19.03;;;11.27;;
15938;SDS011;8068;51.322;9.450;2022-11-11T03:35:37;15.83;;;10.67;;
15938;SDS011;8068;51.322;9.450;2022-11-11T03:38:06;20.87;;;12.40;;
15938;SDS011;8068;51.322;9.450;2022-11-11T03:40:44;23.00;;;13.43;;
15938;SDS011;8068;51.322;9.450;2022-11-11T03:43:11;28.80;;;14.13;;
15938;SDS011;8068;51.322;9.450;2022-11-11T03:45:46;22.87;;;12.80;;
15938;SDS011;8068;51.322;9.450;2022-11-11T03:48:13;19.43;;;12.23;;
15938;SDS011;8068;51.322;9.450;2022-11-11T03:50:39;16.07;;;11.10;;
15938;SDS011;8068;51.322;9.450;2022-11-11T03:53:05;21.97;;;12.17;;
15938;SDS011;8068;51.322;9.450;2022-11-11T03:55:41;22.73;;;12.80;;
15938;SDS011;8068;51.322;9.450;2022-11-11T03:58:10;22.43;;;12.60;;
15938;SDS011;8068;51.322;9.450;2022-11-11T04:00:39;26.00;;;12.73;;
15938;SDS011;8068;51.322;9.450;2022-11-11T04:03:09;18.40;;;12.53;;
15938;SDS011;8068;51.322;9.450;2022-11-11T04:05:55;24.00;;;12.83;;
15938;SDS011;8068;51.322;9.450;2022-11-11T04:08:27;24.23;;;13.73;;
15938;SDS011;8068;51.322;9.450;2022-11-11T04:11:21;23.67;;;13.20;;
15938;SDS011;8068;51.322;9.450;2022-11-11T04:13:55;27.07;;;13.70;;
15938;SDS011;8068;51.322;9.450;2022-11-11T04:16:46;21.57;;;13.33;;
15938;SDS011;8068;51.322;9.450;2022-11-11T04:19:17;20.67;;;13.03;;
15938;SDS011;8068;51.322;9.450;2022-11-11T04:22:06;22.17;;;12.87;;
15938;SDS011;8068;51.322;9.450;2022-11-11T04:24:36;29.17;;;14.73;;
15938;SDS011;8068;51.322;9.450;2022-11-11T04:27:29;28.67;;;14.17;;
15938;SDS011;8068;51.322;9.450;2022-11-11T04:29:59;21.57;;;12.20;;
15938;SDS011;8068;51.322;9.450;2022-11-11T04:32:29;25.43;;;14.33;;
15938;SDS011;8068;51.322;9.450;2022-11-11T04:35:12;21.80;;;13.10;;
15938;SDS011;8068;51.322;9.450;2022-11-11T04:37:46;27.70;;;13.57;;
15938;SDS011;8068;51.322;9.450;2022-11-11T04:40:16;21.73;;;12.60;;
15938;SDS011;8068;51.322;9.450;2022-11-11T04:43:05;23.07;;;12.60;;
15938;SDS011;8068;51.322;9.450;2022-11-11T04:45:31;26.30;;;14.50;;
15938;SDS011;8068;51.322;9.450;2022-11-11T04:48:08;23.43;;;14.10;;
15938;SDS011;8068;51.322;9.450;2022-11-11T04:50:42;29.37;;;13.90;;
15938;SDS011;8068;51.322;9.450;2022-11-11T04:53:13;26.37;;;15.67;;
15938;SDS011;8068;51.322;9.450;2022-11-11T04:55:40;30.17;;;17.00;;
15938;SDS011;8068;51.322;9.450;2022-11-11T04:58:30;26.20;;;14.60;;
15938;SDS011;8068;51.322;9.450;2022-11-11T05:01:02;27.80;;;14.50;;
15938;SDS011;8068;51.322;9.450;2022-11-11T05:03:32;24.03;;;13.80;;
15938;SDS011;8068;51.322;9.450;2022-11-11T05:06:04;31.80;;;14.90;;
15938;SDS011;8068;51.322;9.450;2022-11-11T05:08:52;25.87;;;13.03;;
15938;SDS011;8068;51.322;9.450;2022-11-11T05:11:32;22.77;;;13.63;;
15938;SDS011;8068;51.322;9.450;2022-11-11T05:14:05;21.30;;;13.10;;
15938;SDS011;8068;51.322;9.450;2022-11-11T05:16:55;20.10;;;12.43;;
15938;SDS011;8068;51.322;9.450;2022-11-11T05:19:44;29.23;;;13.37;;
15938;SDS011;8068;51.322;9.450;2022-11-11T05:22:36;25.00;;;13.53;;
15938;SDS011;8068;51.322;9.450;2022-11-11T05:25:05;25.03;;;11.50;;
15938;SDS011;8068;51.322;9.450;2022-11-11T05:27:50;28.50;;;14.57;;
15938;SDS011;8068;51.322;9.450;2022-11-11T05:30:24;19.50;;;12.07;;
15938;SDS011;8068;51.322;9.450;2022-11-11T05:32:51;24.00;;;12.80;;
15938;SDS011;8068;51.322;9.450;2022-11-11T05:35:19;20.90;;;13.07;;
15938;SDS011;8068;51.322;9.450;2022-11-11T05:37:46;24.73;;;13.57;;
15938;SDS011;8068;51.322;9.450;2022-11-11T05:40:39;20.07;;;12.73;;
15938;SDS011;8068;51.322;9.450;2022-11-11T05:43:05;21.27;;;11.47;;
15938;SDS011;8068;51.322;9.450;2022-11-11T05:45:42;21.30;;;13.80;;
15938;SDS011;8068;51.322;9.450;2022-11-11T05:48:11;19.03;;;12.40;;
15938;SDS011;8068;51.322;9.450;2022-11-11T05:50:37;23.10;;;14.03;;
15938;SDS011;8068;51.322;9.450;2022-11-11T05:53:07;19.60;;;12.77;;
15938;SDS011;8068;51.322;9.450;2022-11-11T05:55:37;18.60;;;12.00;;
15938;SDS011;8068;51.322;9.450;2022-11-11T05:58:07;22.10;;;12.67;;
15938;SDS011;8068;51.322;9.450;2022-11-11T06:00:33;20.10;;;12.47;;
15938;SDS011;8068;51.322;9.450;2022-11-11T06:03:03;18.70;;;11.90;;
15938;SDS011;8068;51.322;9.450;2022-11-11T06:05:37;22.20;;;13.00;;
15938;SDS011;8068;51.322;9.450;2022-11-11T06:08:07;21.97;;;13.10;;
15938;SDS011;8068;51.322;9.450;2022-11-11T06:10:33;16.47;;;10.80;;
15938;SDS011;8068;51.322;9.450;2022-11-11T06:13:00;17.23;;;11.37;;
15938;SDS011;8068;51.322;9.450;2022-11-11T06:15:39;22.13;;;12.23;;
15938;SDS011;8068;51.322;9.450;2022-11-11T06:18:10;15.87;;;10.93;;
15938;SDS011;8068;51.322;9.450;2022-11-11T06:20:36;18.57;;;11.30;;
15938;SDS011;8068;51.322;9.450;2022-11-11T06:23:07;21.53;;;12.70;;
15938;SDS011;8068;51.322;9.450;2022-11-11T06:25:37;17.40;;;11.67;;
15938;SDS011;8068;51.322;9.450;2022-11-11T06:28:31;20.13;;;12.40;;
15938;SDS011;8068;51.322;9.450;2022-11-11T06:31:01;21.57;;;12.63;;
15938;SDS011;8068;51.322;9.450;2022-11-11T06:33:32;21.73;;;12.10;;
15938;SDS011;8068;51.322;9.450;2022-11-11T06:36:09;27.33;;;12.97;;
15938;SDS011;8068;51.322;9.450;2022-11-11T06:38:40;22.13;;;12.13;;
15938;SDS011;8068;51.322;9.450;2022-11-11T06:41:11;18.37;;;11.07;;
15938;SDS011;8068;51.322;9.450;2022-11-11T06:43:42;21.53;;;12.30;;
15938;SDS011;8068;51.322;9.450;2022-11-11T06:46:21;24.23;;;13.20;;
15938;SDS011;8068;51.322;9.450;2022-11-11T06:48:52;24.93;;;12.83;;
15938;SDS011;8068;51.322;9.450;2022-11-11T06:51:22;16.47;;;11.57;;
15938;SDS011;8068;51.322;9.450;2022-11-11T06:53:52;19.07;;;12.53;;
15938;SDS011;8068;51.322;9.450;2022-11-11T06:56:22;24.33;;;12.53;;
15938;SDS011;8068;51.322;9.450;2022-11-11T06:58:52;23.27;;;13.20;;
15938;SDS011;8068;51.322;9.450;2022-11-11T07:01:27;18.90;;;12.40;;
15938;SDS011;8068;51.322;9.450;2022-11-11T07:03:58;14.57;;;10.50;;
15938;SDS011;8068;51.322;9.450;2022-11-11T07:06:28;16.73;;;11.30;;
15938;SDS011;8068;51.322;9.450;2022-11-11T07:08:57;17.80;;;11.33;;
15938;SDS011;8068;51.322;9.450;2022-11-11T07:11:27;21.40;;;11.30;;
15938;SDS011;8068;51.322;9.450;2022-11-11T07:13:57;20.40;;;11.47;;
15938;SDS011;8068;51.322;9.450;2022-11-11T07:16:28;14.77;;;10.23;;
15938;SDS011;8068;51.322;9.450;2022-11-11T07:19:03;20.20;;;11.17;;
15938;SDS011;8068;51.322;9.450;2022-11-11T07:21:33;21.77;;;12.30;;
15938;SDS011;8068;51.322;9.450;2022-11-11T07:24:03;18.17;;;11.37;;
15938;SDS011;8068;51.322;9.450;2022-11-11T07:26:33;15.17;;;10.60;;
15938;SDS011;8068;51.322;9.450;2022-11-11T07:29:03;15.23;;;10.03;;
15938;SDS011;8068;51.322;9.450;2022-11-11T07:31:33;19.67;;;11.03;;
15938;SDS011;8068;51.322;9.450;2022-11-11T07:34:03;18.87;;;11.10;;
15938;SDS011;8068;51.322;9.450;2022-11-11T07:36:37;18.03;;;11.70;;
15938;SDS011;8068;51.322;9.450;2022-11-11T07:39:07;15.83;;;10.07;;
15938;SDS011;8068;51.322;9.450;2022-11-11T07:41:38;17.40;;;10.67;;
15938;SDS011;8068;51.322;9.450;2022-11-11T07:44:08;16.50;;;10.97;;
15938;SDS011;8068;51.322;9.450;2022-11-11T07:46:38;19.37;;;12.07;;
15938;SDS011;8068;51.322;9.450;2022-11-11T07:49:08;15.80;;;9.97;;
15938;SDS011;8068;51.322;9.450;2022-11-11T07:51:38;16.27;;;10.17;;
15938;SDS011;8068;51.322;9.450;2022-11-11T07:54:13;19.67;;;11.60;;
15938;SDS011;8068;51.322;9.450;2022-11-11T07:56:43;17.03;;;10.90;;
15938;SDS011;8068;51.322;9.450;2022-11-11T07:59:14;20.70;;;11.73;;
15938;SDS011;8068;51.322;9.450;2022-11-11T08:01:44;14.47;;;10.77;;
15938;SDS011;8068;51.322;9.450;2022-11-11T08:04:13;16.23;;;11.93;;
15938;SDS011;8068;51.322;9.450;2022-11-11T08:06:44;17.67;;;10.83;;
15938;SDS011;8068;51.322;9.450;2022-11-11T08:09:14;18.97;;;11.70;;
15938;SDS011;8068;51.322;9.450;2022-11-11T08:11:49;20.87;;;11.53;;
15938;SDS011;8068;51.322;9.450;2022-11-11T08:14:34;19.50;;;10.83;;
15938;SDS011;8068;51.322;9.450;2022-11-11T08:17:00;18.63;;;11.40;;
15938;SDS011;8068;51.322;9.450;2022-11-11T08:19:32;18.67;;;11.17;;
15938;SDS011;8068;51.322;9.450;2022-11-11T08:21:58;17.20;;;11.90;;
15938;SDS011;8068;51.322;9.450;2022-11-11T08:24:24;21.17;;;12.00;;
15938;SDS011;8068;51.322;9.450;2022-11-11T08:27:14;19.80;;;13.23;;
15938;SDS011;8068;51.322;9.450;2022-11-11T08:29:44;19.00;;;11.87;;
15938;SDS011;8068;51.322;9.450;2022-11-11T08:32:10;20.63;;;12.27;;
15938;SDS011;8068;51.322;9.450;2022-11-11T08:34:36;21.40;;;11.83;;
15938;SDS011;8068;51.322;9.450;2022-11-11T08:37:09;16.07;;;11.90;;
15938;SDS011;8068;51.322;9.450;2022-11-11T08:39:38;21.70;;;11.40;;
15938;SDS011;8068;51.322;9.450;2022-11-11T08:42:04;27.90;;;12.80;;
15938;SDS011;8068;51.322;9.450;2022-11-11T08:44:30;16.33;;;12.83;;
15938;SDS011;8068;51.322;9.450;2022-11-11T08:47:04;22.80;;;13.50;;
15938;SDS011;8068;51.322;9.450;2022-11-11T08:49:30;21.00;;;12.90;;
15938;SDS011;8068;51.322;9.450;2022-11-11T08:51:56;23.47;;;13.73;;
15938;SDS011;8068;51.322;9.450;2022-11-11T08:54:22;19.07;;;13.37;;
15938;SDS011;8068;51.322;9.450;2022-11-11T08:56:56;24.83;;;13.80;;
15938;SDS011;8068;51.322;9.450;2022-11-11T08:59:23;19.43;;;12.80;;
15938;SDS011;8068;51.322;9.450;2022-11-11T09:01:49;18.63;;;12.97;;
15938;SDS011;8068;51.322;9.450;2022-11-11T09:04:15;18.57;;;12.30;;
15938;SDS011;8068;51.322;9.450;2022-11-11T09:07:07;19.90;;;12.93;;
15938;SDS011;8068;51.322;9.450;2022-11-11T09:09:33;23.70;;;14.60;;
15938;SDS011;8068;51.322;9.450;2022-11-11T09:12:00;18.80;;;13.63;;
15938;SDS011;8068;51.322;9.450;2022-11-11T09:14:33;26.73;;;13.57;;
15938;SDS011;8068;51.322;9.450;2022-11-11T09:17:00;24.10;;;13.60;;
15938;SDS011;8068;51.322;9.450;2022-11-11T09:19:26;21.43;;;13.90;;
15938;SDS011;8068;51.322;9.450;2022-11-11T09:21:52;18.97;;;12.93;;
15938;SDS011;8068;51.322;9.450;2022-11-11T09:24:26;22.13;;;14.00;;
15938;SDS011;8068;51.322;9.450;2022-11-11T09:26:53;22.17;;;12.73;;
15938;SDS011;8068;51.322;9.450;2022-11-11T09:29:19;22.20;;;12.80;;
15938;SDS011;8068;51.322;9.450;2022-11-11T09:31:45;21.73;;;13.43;;
15938;SDS011;8068;51.322;9.450;2022-11-11T09:34:20;21.73;;;13.40;;
15938;SDS011;8068;51.322;9.450;2022-11-11T09:36:46;26.13;;;13.13;;
15938;SDS011;8068;51.322;9.450;2022-11-11T09:39:15;20.70;;;13.40;;
15938;SDS011;8068;51.322;9.450;2022-11-11T09:41:51;16.37;;;12.10;;
15938;SDS011;8068;51.322;9.450;2022-11-11T09:50:01;20.30;;;13.57;;
15938;SDS011;8068;51.322;9.450;2022-11-11T09:57:58;24.87;;;13.00;;
15938;SDS011;8068;51.322;9.450;2022-11-11T10:00:36;19.33;;;11.70;;
15938;SDS011;8068;51.322;9.450;2022-11-11T10:03:10;18.00;;;11.30;;
15938;SDS011;8068;51.322;9.450;2022-11-11T10:05:45;16.90;;;12.37;;
15938;SDS011;8068;51.322;9.450;2022-11-11T10:08:25;17.00;;;10.27;;
15938;SDS011;8068;51.322;9.450;2022-11-11T10:10:58;14.03;;;10.30;;
15938;SDS011;8068;51.322;9.450;2022-11-11T10:13:29;18.67;;;11.67;;
15938;SDS011;8068;51.322;9.450;2022-11-11T10:21:43;14.20;;;10.07;;
15938;SDS011;8068;51.322;9.450;2022-11-11T10:24:32;14.57;;;10.50;;
15938;SDS011;8068;51.322;9.450;2022-11-11T10:27:19;16.57;;;11.33;;
15938;SDS011;8068;51.322;9.450;2022-11-11T10:29:50;13.90;;;10.57;;
15938;SDS011;8068;51.322;9.450;2022-11-11T10:32:21;17.97;;;11.10;;
15938;SDS011;8068;51.322;9.450;2022-11-11T10:34:59;15.73;;;10.80;;
15938;SDS011;8068;51.322;9.450;2022-11-11T10:37:42;17.70;;;10.07;;
15938;SDS011;8068;51.322;9.450;2022-11-11T10:42:51;14.27;;;9.70;;
15938;SDS011;8068;51.322;9.450;2022-11-11T10:48:23;12.40;;;9.37;;
15938;SDS011;8068;51.322;9.450;2022-11-11T10:50:58;11.37;;;8.00;;
15938;SDS011;8068;51.322;9.450;2022-11-11T10:53:38;12.33;;;9.20;;
15938;SDS011;8068;51.322;9.450;2022-11-11T10:59:19;12.07;;;9.40;;
15938;SDS011;8068;51.322;9.450;2022-11-11T11:01:56;11.10;;;9.17;;
15938;SDS011;8068;51.322;9.450;2022-11-11T11:07:21;12.80;;;8.97;;
15938;SDS011;8068;51.322;9.450;2022-11-11T11:09:55;14.77;;;9.60;;
15938;SDS011;8068;51.322;9.450;2022-11-11T11:15:05;11.03;;;8.10;;
15938;SDS011;8068;51.322;9.450;2022-11-11T11:18:05;13.53;;;9.30;;
15938;SDS011;8068;51.322;9.450;2022-11-11T11:20:49;19.10;;;7.67;;
15938;SDS011;8068;51.322;9.450;2022-11-11T11:23:36;9.37;;;8.40;;
15938;SDS011;8068;51.322;9.450;2022-11-11T11:26:08;9.27;;;8.33;;
15938;SDS011;8068;51.322;9.450;2022-11-11T11:28:51;10.40;;;8.20;;
15938;SDS011;8068;51.322;9.450;2022-11-11T11:31:38;15.10;;;8.10;;
15938;SDS011;8068;51.322;9.450;2022-11-11T11:34:05;12.17;;;7.70;;
15938;SDS011;8068;51.322;9.450;2022-11-11T11:36:35;11.00;;;7.77;;
15938;SDS011;8068;51.322;9.450;2022-11-11T11:39:04;9.17;;;7.77;;
15938;SDS011;8068;51.322;9.450;2022-11-11T11:41:41;8.13;;;7.30;;
15938;SDS011;8068;51.322;9.450;2022-11-11T11:44:25;8.07;;;7.30;;
15938;SDS011;8068;51.322;9.450;2022-11-11T11:52:20;8.83;;;6.70;;
15938;SDS011;8068;51.322;9.450;2022-11-11T11:55:23;9.93;;;6.90;;
15938;SDS011;8068;51.322;9.450;2022-11-11T11:57:59;7.40;;;6.70;;
15938;SDS011;8068;51.322;9.450;2022-11-11T12:00:41;12.67;;;6.63;;
15938;SDS011;8068;51.322;9.450;2022-11-11T12:03:20;8.20;;;6.73;;
15938;SDS011;8068;51.322;9.450;2022-11-11T12:09:02;9.97;;;7.07;;
15938;SDS011;8068;51.322;9.450;2022-11-11T12:17:25;7.27;;;6.30;;
15938;SDS011;8068;51.322;9.450;2022-11-11T12:20:08;12.17;;;7.20;;
15938;SDS011;8068;51.322;9.450;2022-11-11T12:44:53;7.00;;;5.27;;
15938;SDS011;8068;51.322;9.450;2022-11-11T12:56:57;6.17;;;4.40;;
15938;SDS011;8068;51.322;9.450;2022-11-11T13:05:15;4.93;;;4.43;;
15938;SDS011;8068;51.322;9.450;2022-11-11T13:10:44;6.70;;;4.17;;
15938;SDS011;8068;51.322;9.450;2022-11-11T13:13:49;5.80;;;3.90;;
15938;SDS011;8068;51.322;9.450;2022-11-11T13:16:34;3.60;;;3.37;;
15938;SDS011;8068;51.322;9.450;2022-11-11T13:19:05;4.00;;;3.70;;
15938;SDS011;8068;51.322;9.450;2022-11-11T13:21:53;8.57;;;3.70;;
15938;SDS011;8068;51.322;9.450;2022-11-11T13:24:25;5.90;;;3.63;;
15938;SDS011;8068;51.322;9.450;2022-11-11T13:32:18;5.90;;;3.90;;
15938;SDS011;8068;51.322;9.450;2022-11-11T13:34:53;5.97;;;3.57;;
15938;SDS011;8068;51.322;9.450;2022-11-11T13:37:30;3.67;;;3.37;;
15938;SDS011;8068;51.322;9.450;2022-11-11T13:40:04;6.10;;;3.63;;
15938;SDS011;8068;51.322;9.450;2022-11-11T13:42:39;5.20;;;3.80;;
15938;SDS011;8068;51.322;9.450;2022-11-11T13:51:09;4.00;;;3.60;;
15938;SDS011;8068;51.322;9.450;2022-11-11T13:53:41;5.03;;;4.30;;
15938;SDS011;8068;51.322;9.450;2022-11-11T13:56:11;4.47;;;3.50;;
15938;SDS011;8068;51.322;9.450;2022-11-11T13:58:51;3.83;;;3.53;;
15938;SDS011;8068;51.322;9.450;2022-11-11T14:01:21;5.50;;;4.23;;
15938;SDS011;8068;51.322;9.450;2022-11-11T14:09:04;6.30;;;3.90;;
15938;SDS011;8068;51.322;9.450;2022-11-11T14:11:36;7.13;;;4.23;;
15938;SDS011;8068;51.322;9.450;2022-11-11T14:14:43;5.97;;;3.40;;
15938;SDS011;8068;51.322;9.450;2022-11-11T14:17:20;3.50;;;3.20;;
15938;SDS011;8068;51.322;9.450;2022-11-11T14:19:49;5.82;;;3.05;;
15938;SDS011;8068;51.322;9.450;2022-11-11T14:24:52;6.80;;;3.30;;
15938;SDS011;8068;51.322;9.450;2022-11-11T14:27:21;5.57;;;2.90;;
15938;SDS011;8068;51.322;9.450;2022-11-11T14:29:55;3.20;;;2.60;;
15938;SDS011;8068;51.322;9.450;2022-11-11T14:35:12;3.90;;;3.30;;
15938;SDS011;8068;51.322;9.450;2022-11-11T14:40:23;4.10;;;3.30;;
15938;SDS011;8068;51.322;9.450;2022-11-11T14:42:54;6.30;;;3.53;;
15938;SDS011;8068;51.322;9.450;2022-11-11T14:47:59;5.93;;;4.57;;
15938;SDS011;8068;51.322;9.450;2022-11-11T14:52:55;4.10;;;3.80;;
15938;SDS011;8068;51.322;9.450;2022-11-11T14:55:30;3.40;;;3.20;;
15938;SDS011;8068;51.322;9.450;2022-11-11T14:58:14;6.47;;;3.00;;
15938;SDS011;8068;51.322;9.450;2022-11-11T15:00:47;3.20;;;2.90;;
15938;SDS011;8068;51.322;9.450;2022-11-11T15:06:01;4.17;;;3.87;;
15938;SDS011;8068;51.322;9.450;2022-11-11T15:14:20;4.10;;;3.40;;
15938;SDS011;8068;51.322;9.450;2022-11-11T15:20:03;4.07;;;3.50;;
15938;SDS011;8068;51.322;9.450;2022-11-11T15:22:43;3.30;;;3.10;;
15938;SDS011;8068;51.322;9.450;2022-11-11T15:25:45;5.30;;;3.03;;
15938;SDS011;8068;51.322;9.450;2022-11-11T15:34:31;4.43;;;4.03;;
15938;SDS011;8068;51.322;9.450;2022-11-11T15:37:22;3.97;;;3.67;;
15938;SDS011;8068;51.322;9.450;2022-11-11T15:39:53;6.90;;;4.00;;
15938;SDS011;8068;51.322;9.450;2022-11-11T15:44:52;4.57;;;3.40;;
15938;SDS011;8068;51.322;9.450;2022-11-11T15:47:23;5.13;;;3.93;;
15938;SDS011;8068;51.322;9.450;2022-11-11T15:49:50;4.03;;;3.60;;
15938;SDS011;8068;51.322;9.450;2022-11-11T15:54:56;12.13;;;8.90;;
15938;SDS011;8068;51.322;9.450;2022-11-11T15:59:58;9.00;;;4.90;;
15938;SDS011;8068;51.322;9.450;2022-11-11T16:02:26;7.97;;;6.17;;
15938;SDS011;8068;51.322;9.450;2022-11-11T16:04:58;7.93;;;5.87;;
15938;SDS011;8068;51.322;9.450;2022-11-11T16:07:29;20.57;;;9.47;;
15938;SDS011;8068;51.322;9.450;2022-11-11T16:09:57;37.40;;;13.70;;
15938;SDS011;8068;51.322;9.450;2022-11-11T16:12:35;5.50;;;5.00;;
15938;SDS011;8068;51.322;9.450;2022-11-11T16:15:17;8.47;;;5.23;;
15938;SDS011;8068;51.322;9.450;2022-11-11T16:17:45;4.20;;;3.90;;
15938;SDS011;8068;51.322;9.450;2022-11-11T16:20:24;9.70;;;6.43;;
15938;SDS011;8068;51.322;9.450;2022-11-11T16:22:56;13.17;;;8.87;;
15938;SDS011;8068;51.322;9.450;2022-11-11T16:25:29;16.03;;;6.97;;
15938;SDS011;8068;51.322;9.450;2022-11-11T16:27:59;11.97;;;8.80;;
15938;SDS011;8068;51.322;9.450;2022-11-11T16:30:30;11.30;;;5.10;;
15938;SDS011;8068;51.322;9.450;2022-11-11T16:33:15;6.30;;;4.67;;
15938;SDS011;8068;51.322;9.450;2022-11-11T16:35:48;5.27;;;4.77;;
15938;SDS011;8068;51.322;9.450;2022-11-11T16:38:30;5.63;;;4.37;;
15938;SDS011;8068;51.322;9.450;2022-11-11T16:41:21;7.20;;;4.80;;
15938;SDS011;8068;51.322;9.450;2022-11-11T16:43:53;4.43;;;3.97;;
15938;SDS011;8068;51.322;9.450;2022-11-11T16:46:45;5.23;;;4.73;;
15938;SDS011;8068;51.322;9.450;2022-11-11T16:49:15;5.33;;;4.50;;
15938;SDS011;8068;51.322;9.450;2022-11-11T16:51:48;5.80;;;4.33;;
15938;SDS011;8068;51.322;9.450;2022-11-11T16:54:21;5.63;;;5.00;;
15938;SDS011;8068;51.322;9.450;2022-11-11T16:56:50;5.10;;;4.80;;
15938;SDS011;8068;51.322;9.450;2022-11-11T16:59:20;9.13;;;4.67;;
15938;SDS011;8068;51.322;9.450;2022-11-11T17:01:57;8.80;;;5.20;;
15938;SDS011;8068;51.322;9.450;2022-11-11T17:04:23;5.83;;;5.23;;
15938;SDS011;8068;51.322;9.450;2022-11-11T17:06:57;7.33;;;5.70;;
15938;SDS011;8068;51.322;9.450;2022-11-11T17:12:01;8.70;;;6.93;;
15938;SDS011;8068;51.322;9.450;2022-11-11T17:14:28;8.30;;;7.40;;
15938;SDS011;8068;51.322;9.450;2022-11-11T17:16:56;7.80;;;7.07;;
15938;SDS011;8068;51.322;9.450;2022-11-11T17:19:22;10.67;;;6.80;;
15938;SDS011;8068;51.322;9.450;2022-11-11T17:21:50;8.47;;;7.30;;
15938;SDS011;8068;51.322;9.450;2022-11-11T17:24:16;8.00;;;7.20;;
15938;SDS011;8068;51.322;9.450;2022-11-11T17:26:44;11.40;;;7.60;;
15938;SDS011;8068;51.322;9.450;2022-11-11T17:29:13;8.70;;;7.27;;
15938;SDS011;8068;51.322;9.450;2022-11-11T17:31:42;17.93;;;8.97;;
15938;SDS011;8068;51.322;9.450;2022-11-11T17:34:12;12.30;;;9.97;;
15938;SDS011;8068;51.322;9.450;2022-11-11T17:36:41;17.00;;;9.00;;
15938;SDS011;8068;51.322;9.450;2022-11-11T17:39:11;15.20;;;9.90;;
15938;SDS011;8068;51.322;9.450;2022-11-11T17:41:41;14.60;;;8.70;;
15938;SDS011;8068;51.322;9.450;2022-11-11T17:44:10;14.63;;;9.50;;
15938;SDS011;8068;51.322;9.450;2022-11-11T17:46:39;22.30;;;10.10;;
15938;SDS011;8068;51.322;9.450;2022-11-11T17:49:12;15.37;;;9.77;;
15938;SDS011;8068;51.322;9.450;2022-11-11T17:51:43;11.77;;;9.23;;
15938;SDS011;8068;51.322;9.450;2022-11-11T17:54:11;21.00;;;9.63;;
15938;SDS011;8068;51.322;9.450;2022-11-11T17:56:40;13.90;;;9.33;;